Time;durP1;ratioP1;P1;durP2;ratioP2;P2;SDS_P1;SDS_P2;PMS_P1;PMS_P2;Temp;Humidity;BMP_temperature;BMP_pressure;BME280_temperature;BME280_humidity;BME280_pressure;Samples;Min_cycle;Max_cycle;Signal;HPM_P1;HPM_P2
2021/04/09 00:02:08;;;;;;;8.60;6.20;;;4.50;99.90;;;;;;4999279;28;20540;-79
2021/04/09 00:04:33;;;;;;;8.33;6.20;;;4.50;99.90;;;;;;5000439;28;20415;-79
2021/04/09 00:06:59;;;;;;;10.03;6.70;;;4.60;99.90;;;;;;4994154;28;20435;-79
2021/04/09 00:09:24;;;;;;;11.03;7.10;;;4.50;99.90;;;;;;4978098;28;20729;-79
2021/04/09 00:11:50;;;;;;;8.47;6.97;;;4.50;99.90;;;;;;4994518;28;20209;-79
2021/04/09 00:14:16;;;;;;;7.13;6.40;;;4.50;99.90;;;;;;4979487;28;20178;-79
2021/04/09 00:16:42;;;;;;;9.80;6.40;;;4.50;99.90;;;;;;4978365;28;20188;-79
2021/04/09 00:19:12;;;;;;;8.83;6.20;;;4.50;99.90;;;;;;4978534;28;20591;-79
2021/04/09 00:21:38;;;;;;;12.93;7.07;;;4.40;99.90;;;;;;4978401;28;20464;-79
2021/04/09 00:24:04;;;;;;;13.87;7.13;;;4.30;99.90;;;;;;4993625;28;20421;-78
2021/04/09 00:26:29;;;;;;;10.83;7.70;;;4.30;99.90;;;;;;5010559;28;20205;-79
2021/04/09 00:28:55;;;;;;;7.60;6.50;;;4.40;99.90;;;;;;5010979;28;20651;-79
2021/04/09 00:31:21;;;;;;;8.13;6.50;;;4.40;99.90;;;;;;4977264;28;20217;-79
2021/04/09 00:33:46;;;;;;;10.67;7.07;;;4.40;99.90;;;;;;5012340;28;20173;-79
2021/04/09 00:36:12;;;;;;;10.20;6.33;;;4.30;99.90;;;;;;4973322;28;20204;-79
2021/04/09 00:38:37;;;;;;;11.10;6.67;;;4.30;99.90;;;;;;4977858;28;20520;-78
2021/04/09 00:41:03;;;;;;;9.57;7.13;;;4.30;99.90;;;;;;5000078;28;20204;-79
2021/04/09 00:43:29;;;;;;;9.83;5.87;;;4.30;99.90;;;;;;4984903;28;20181;-79
2021/04/09 00:45:55;;;;;;;9.00;6.87;;;4.30;99.90;;;;;;4979965;28;20444;-79
2021/04/09 00:48:20;;;;;;;9.43;6.67;;;4.20;99.90;;;;;;4980584;28;20547;-79
2021/04/09 00:50:46;;;;;;;11.20;6.13;;;4.20;99.90;;;;;;5011372;28;20208;-79
2021/04/09 00:53:15;;;;;;;6.90;5.67;;;4.20;99.90;;;;;;4979538;28;20232;-79
2021/04/09 00:55:41;;;;;;;11.83;6.70;;;4.20;99.90;;;;;;4976462;28;20578;-78
2021/04/09 00:58:07;;;;;;;6.50;5.70;;;4.10;99.90;;;;;;4976268;28;20429;-78
2021/04/09 01:00:34;;;;;;;6.73;5.90;;;4.10;99.90;;;;;;4975525;28;20532;-78
2021/04/09 01:03:00;;;;;;;8.87;6.47;;;4.10;99.90;;;;;;4974659;28;20256;-78
2021/04/09 01:05:26;;;;;;;7.93;6.97;;;4.10;99.90;;;;;;5013518;28;20873;-78
2021/04/09 01:07:52;;;;;;;7.23;6.53;;;4.10;99.90;;;;;;4986053;28;20182;-78
2021/04/09 01:10:19;;;;;;;8.90;5.70;;;4.00;99.90;;;;;;4988560;28;20470;-78
2021/04/09 01:12:46;;;;;;;10.40;5.97;;;4.20;99.90;;;;;;4981536;28;20185;-78
2021/04/09 01:15:13;;;;;;;8.07;5.60;;;4.20;99.90;;;;;;4992937;28;20428;-78
2021/04/09 01:17:54;;;;;;;7.60;5.37;;;4.20;99.90;;;;;;4974257;28;20492;-79
2021/04/09 01:20:45;;;;;;;9.03;5.87;;;4.20;99.90;;;;;;4975509;28;20444;-78
2021/04/09 01:23:11;;;;;;;8.90;5.53;;;4.10;99.90;;;;;;4987614;28;20432;-78
2021/04/09 01:26:05;;;;;;;8.60;6.20;;;4.10;99.90;;;;;;5008237;28;20436;-79
2021/04/09 01:28:52;;;;;;;8.50;5.60;;;4.10;99.90;;;;;;4996264;28;20759;-79
2021/04/09 01:31:35;;;;;;;9.03;6.07;;;4.00;99.90;;;;;;5025649;28;20471;-78
2021/04/09 01:34:02;;;;;;;7.57;6.37;;;4.00;99.90;;;;;;4992790;28;20420;-78
2021/04/09 01:36:41;;;;;;;7.87;5.00;;;4.00;99.90;;;;;;4989169;28;20424;-79
2021/04/09 01:39:19;;;;;;;11.73;6.50;;;4.00;99.90;;;;;;4990494;28;20486;-79
2021/04/09 01:41:46;;;;;;;8.20;5.83;;;4.00;99.90;;;;;;5023355;28;20466;-79
2021/04/09 01:44:13;;;;;;;9.00;6.13;;;4.00;99.90;;;;;;4978598;28;20428;-79
2021/04/09 01:46:42;;;;;;;12.37;8.00;;;4.00;99.90;;;;;;4985589;28;20519;-79
2021/04/09 01:49:10;;;;;;;7.50;5.90;;;4.00;99.90;;;;;;4986978;28;20425;-79
2021/04/09 01:51:36;;;;;;;9.00;5.70;;;4.00;99.90;;;;;;4994058;28;20985;-79
2021/04/09 01:54:03;;;;;;;10.13;6.33;;;4.00;99.90;;;;;;5006779;28;20428;-78
2021/04/09 01:56:29;;;;;;;10.40;7.17;;;4.10;99.90;;;;;;4988992;28;20551;-78
2021/04/09 01:58:55;;;;;;;7.80;5.70;;;4.00;99.90;;;;;;4976108;28;20479;-78
2021/04/09 02:01:21;;;;;;;11.00;6.60;;;4.00;99.90;;;;;;5014224;28;20458;-79
2021/04/09 02:03:51;;;;;;;12.73;7.33;;;4.00;99.90;;;;;;4979429;28;20421;-78
2021/04/09 02:06:18;;;;;;;12.50;6.53;;;4.00;99.90;;;;;;4987030;28;20429;-79
2021/04/09 02:08:44;;;;;;;9.60;6.70;;;4.00;99.90;;;;;;4976171;28;20437;-79
2021/04/09 02:11:10;;;;;;;8.77;6.10;;;4.10;99.90;;;;;;4985936;28;20475;-79
2021/04/09 02:13:38;;;;;;;14.07;6.33;;;3.90;99.90;;;;;;4982608;28;20409;-79
2021/04/09 02:16:05;;;;;;;8.30;6.17;;;3.90;99.90;;;;;;4976875;28;20488;-79
2021/04/09 02:18:31;;;;;;;10.83;7.70;;;4.00;99.90;;;;;;4976820;28;20437;-78
2021/04/09 02:21:00;;;;;;;14.13;7.30;;;4.10;99.90;;;;;;4990015;28;20447;-78
2021/04/09 02:23:27;;;;;;;10.90;6.07;;;4.10;99.90;;;;;;5000905;28;20440;-78
2021/04/09 02:26:00;;;;;;;8.47;6.90;;;4.10;99.90;;;;;;4989935;28;20530;-78
2021/04/09 02:28:26;;;;;;;9.53;6.53;;;4.20;99.90;;;;;;5020941;28;20432;-78
2021/04/09 02:31:03;;;;;;;9.33;6.07;;;4.10;99.90;;;;;;4995510;28;20459;-77
2021/04/09 02:33:30;;;;;;;9.30;7.00;;;4.10;99.90;;;;;;4992535;28;20427;-77
2021/04/09 02:35:55;;;;;;;7.47;6.60;;;4.20;99.90;;;;;;4994918;28;20436;-78
2021/04/09 02:38:21;;;;;;;9.43;5.70;;;4.20;99.90;;;;;;5033303;28;20423;-78
2021/04/09 02:40:48;;;;;;;10.37;6.30;;;4.30;99.90;;;;;;4999066;28;20203;-78
2021/04/09 02:43:14;;;;;;;10.73;6.20;;;4.30;99.90;;;;;;5000751;28;20582;-78
2021/04/09 02:45:40;;;;;;;10.30;6.67;;;4.30;99.90;;;;;;4985880;28;20433;-77
2021/04/09 02:48:07;;;;;;;8.77;6.33;;;4.20;99.90;;;;;;4984343;28;20507;-77
2021/04/09 02:50:39;;;;;;;9.37;6.80;;;4.30;99.90;;;;;;5018483;28;20307;-77
2021/04/09 02:53:09;;;;;;;7.80;6.67;;;4.20;99.90;;;;;;5022622;28;20460;-78
2021/04/09 02:55:40;;;;;;;8.40;5.90;;;4.30;99.90;;;;;;4986579;28;20448;-78
2021/04/09 02:58:08;;;;;;;9.10;6.60;;;4.10;99.90;;;;;;4995472;28;20495;-78
2021/04/09 03:00:36;;;;;;;8.83;6.77;;;4.20;99.90;;;;;;4993370;28;20491;-78
2021/04/09 03:03:05;;;;;;;14.47;7.77;;;4.10;99.90;;;;;;4991508;28;20429;-78
2021/04/09 03:05:31;;;;;;;8.00;6.97;;;4.10;99.90;;;;;;4990737;28;20441;-78
2021/04/09 03:07:59;;;;;;;11.90;6.43;;;4.00;99.90;;;;;;4995975;28;20929;-76
2021/04/09 03:10:25;;;;;;;9.13;7.07;;;4.10;99.90;;;;;;4985920;28;20460;-78
2021/04/09 03:12:51;;;;;;;10.27;6.17;;;4.10;99.90;;;;;;4980792;28;20421;-78
2021/04/09 03:15:31;;;;;;;12.50;7.60;;;4.10;99.90;;;;;;4990636;28;20442;-79
2021/04/09 03:18:03;;;;;;;10.27;7.43;;;4.10;99.90;;;;;;4996362;28;20180;-78
2021/04/09 03:20:29;;;;;;;14.87;7.57;;;3.90;99.90;;;;;;4986612;28;21437;-78
2021/04/09 03:22:54;;;;;;;8.63;6.80;;;4.00;99.90;;;;;;4985839;28;20436;-78
2021/04/09 03:25:20;;;;;;;9.70;7.43;;;4.00;99.90;;;;;;4987287;28;20433;-78
2021/04/09 03:27:46;;;;;;;10.57;6.87;;;4.00;99.90;;;;;;4991437;28;20187;-78
2021/04/09 03:30:13;;;;;;;13.17;8.00;;;4.00;99.90;;;;;;4993636;28;20223;-78
2021/04/09 03:32:38;;;;;;;11.60;8.20;;;4.00;99.90;;;;;;4994512;28;20799;-78
2021/04/09 03:35:04;;;;;;;10.30;7.63;;;4.10;99.90;;;;;;4991632;28;20446;-78
2021/04/09 03:37:30;;;;;;;9.00;7.50;;;4.00;99.90;;;;;;4997083;28;20199;-79
2021/04/09 03:39:56;;;;;;;11.43;7.57;;;4.10;99.90;;;;;;5000310;28;20769;-78
2021/04/09 03:42:22;;;;;;;20.90;8.43;;;4.10;99.90;;;;;;4994933;28;20235;-78
2021/04/09 03:44:48;;;;;;;8.73;7.47;;;3.90;99.90;;;;;;4995735;28;20192;-79
2021/04/09 03:47:13;;;;;;;11.07;6.90;;;4.00;99.90;;;;;;4993247;28;20440;-78
2021/04/09 03:49:39;;;;;;;11.53;7.20;;;4.00;99.90;;;;;;4984268;28;20180;-78
2021/04/09 03:52:05;;;;;;;10.03;7.50;;;4.00;99.90;;;;;;4993530;28;20258;-78
2021/04/09 03:54:31;;;;;;;13.00;7.40;;;4.10;99.90;;;;;;4987355;28;20264;-78
2021/04/09 03:56:56;;;;;;;12.63;8.30;;;4.00;99.90;;;;;;5025661;28;20473;-77
2021/04/09 03:59:22;;;;;;;11.80;6.43;;;4.10;99.90;;;;;;5026960;28;20215;-78
2021/04/09 04:01:48;;;;;;;10.90;7.97;;;4.10;99.90;;;;;;4997251;28;20196;-78
2021/04/09 04:04:13;;;;;;;10.07;7.00;;;4.10;99.90;;;;;;4994003;28;20195;-78
2021/04/09 04:06:39;;;;;;;10.20;8.53;;;4.00;99.90;;;;;;4996991;28;20455;-78
2021/04/09 04:09:05;;;;;;;11.33;7.80;;;4.10;99.90;;;;;;5031213;28;20176;-77
2021/04/09 04:11:30;;;;;;;14.23;7.80;;;4.10;99.90;;;;;;4995942;28;20251;-79
2021/04/09 04:13:56;;;;;;;9.83;7.70;;;4.10;99.90;;;;;;4996677;28;20431;-79
2021/04/09 04:16:22;;;;;;;10.03;8.17;;;4.00;99.90;;;;;;4998573;28;20177;-80
2021/04/09 04:18:48;;;;;;;14.13;8.83;;;4.00;99.90;;;;;;4999434;28;20181;-79
2021/04/09 04:21:14;;;;;;;11.90;7.60;;;4.10;99.90;;;;;;4996507;28;20514;-79
2021/04/09 04:23:40;;;;;;;16.30;8.30;;;4.10;99.90;;;;;;4986586;28;20263;-79
2021/04/09 04:26:05;;;;;;;11.27;8.10;;;4.00;99.90;;;;;;4993831;28;20433;-79
2021/04/09 04:28:31;;;;;;;10.27;8.30;;;4.10;99.90;;;;;;4988208;28;20223;-77
2021/04/09 04:30:58;;;;;;;11.97;8.10;;;3.90;99.90;;;;;;4991006;28;20260;-77
2021/04/09 04:33:24;;;;;;;11.77;8.37;;;4.10;99.90;;;;;;4991565;28;20435;-80
2021/04/09 04:35:50;;;;;;;15.23;8.63;;;4.00;99.90;;;;;;4987261;28;20467;-79
2021/04/09 04:38:20;;;;;;;14.53;8.20;;;4.00;99.90;;;;;;4982647;28;20187;-78
2021/04/09 04:40:46;;;;;;;10.00;7.67;;;4.10;99.90;;;;;;4993040;28;20552;-78
2021/04/09 04:43:13;;;;;;;10.97;8.90;;;4.20;99.90;;;;;;4994773;28;20437;-78
2021/04/09 04:45:38;;;;;;;11.40;8.00;;;4.10;99.90;;;;;;4996163;28;20439;-78
2021/04/09 04:48:05;;;;;;;9.53;7.93;;;4.10;99.90;;;;;;4991396;28;20469;-78
2021/04/09 04:50:31;;;;;;;10.43;8.23;;;4.20;99.90;;;;;;4983611;28;20240;-78
2021/04/09 04:52:56;;;;;;;15.07;9.10;;;4.20;99.90;;;;;;4980259;28;20891;-78
2021/04/09 04:55:22;;;;;;;14.40;9.00;;;4.30;99.90;;;;;;4979532;28;20189;-78
2021/04/09 04:57:48;;;;;;;9.93;8.53;;;4.30;99.90;;;;;;4985118;28;20228;-79
2021/04/09 05:00:14;;;;;;;12.43;8.50;;;4.30;99.90;;;;;;4994399;28;20452;-77
2021/04/09 05:02:40;;;;;;;12.30;8.60;;;4.30;99.90;;;;;;4996160;28;20251;-78
2021/04/09 05:05:06;;;;;;;12.17;7.80;;;4.40;99.90;;;;;;4983749;28;20885;-78
2021/04/09 05:07:32;;;;;;;12.57;8.20;;;4.30;99.90;;;;;;4983355;28;20177;-77
2021/04/09 05:09:58;;;;;;;8.70;7.27;;;4.40;99.90;;;;;;4998048;28;20428;-79
2021/04/09 05:12:24;;;;;;;17.20;8.90;;;4.50;99.90;;;;;;4983840;28;20264;-78
2021/04/09 05:14:54;;;;;;;16.67;8.20;;;4.50;99.90;;;;;;4982876;28;20447;-79
2021/04/09 05:17:20;;;;;;;11.00;9.17;;;4.60;99.90;;;;;;4984204;28;20174;-79
2021/04/09 05:19:46;;;;;;;13.83;7.97;;;4.60;99.90;;;;;;4982354;28;20425;-78
2021/04/09 05:22:11;;;;;;;12.47;9.40;;;4.60;99.90;;;;;;4987991;28;20923;-80
2021/04/09 05:24:37;;;;;;;16.60;10.27;;;4.60;99.90;;;;;;4998069;28;20196;-76
2021/04/09 05:27:03;;;;;;;13.77;8.00;;;4.70;99.90;;;;;;4978013;28;20640;-77
2021/04/09 05:29:30;;;;;;;13.10;9.43;;;4.70;99.90;;;;;;4979405;28;20423;-76
2021/04/09 05:31:56;;;;;;;10.70;8.17;;;4.80;99.90;;;;;;4981267;28;20268;-76
2021/04/09 05:34:21;;;;;;;13.50;8.50;;;4.80;99.90;;;;;;4996636;28;20444;-77
2021/04/09 05:36:47;;;;;;;15.90;8.90;;;4.90;99.90;;;;;;5015330;28;20436;-77
2021/04/09 05:39:13;;;;;;;8.50;7.13;;;4.90;99.90;;;;;;4978069;28;20188;-77
2021/04/09 05:41:38;;;;;;;11.93;9.00;;;4.90;99.90;;;;;;4979367;28;20761;-78
2021/04/09 05:44:04;;;;;;;10.63;8.87;;;5.00;99.90;;;;;;4981919;28;20192;-78
2021/04/09 05:46:30;;;;;;;9.03;7.60;;;5.10;99.90;;;;;;5000802;28;20192;-78
2021/04/09 05:48:55;;;;;;;11.33;8.13;;;5.10;99.90;;;;;;5016978;28;20502;-77
2021/04/09 05:51:21;;;;;;;12.70;8.50;;;5.10;99.90;;;;;;5013095;28;20228;-77
2021/04/09 05:53:47;;;;;;;12.47;8.60;;;5.20;99.90;;;;;;5000092;28;20184;-78
2021/04/09 05:56:12;;;;;;;11.13;7.93;;;5.30;99.90;;;;;;4996637;28;20193;-78
2021/04/09 05:58:38;;;;;;;12.93;8.77;;;5.30;99.90;;;;;;5029933;28;20187;-78
2021/04/09 06:01:04;;;;;;;13.40;8.63;;;5.40;99.90;;;;;;5029074;28;20204;-78
2021/04/09 06:03:29;;;;;;;10.60;8.17;;;5.40;99.90;;;;;;5012818;28;20285;-77
2021/04/09 06:05:55;;;;;;;12.47;8.00;;;5.50;99.90;;;;;;4990494;28;20272;-78
2021/04/09 06:08:21;;;;;;;12.30;7.97;;;5.50;99.90;;;;;;4985295;28;20445;-78
2021/04/09 06:10:46;;;;;;;10.73;7.63;;;5.60;99.90;;;;;;4979609;28;20209;-78
2021/04/09 06:13:12;;;;;;;10.60;7.50;;;5.80;99.90;;;;;;4981319;28;20174;-78
2021/04/09 06:15:38;;;;;;;11.50;7.73;;;5.80;99.90;;;;;;4990750;28;20173;-77
2021/04/09 06:18:04;;;;;;;8.30;7.33;;;5.90;99.90;;;;;;4999280;28;20169;-78
2021/04/09 06:20:29;;;;;;;9.23;7.90;;;5.90;99.90;;;;;;4996113;28;20201;-78
2021/04/09 06:22:55;;;;;;;10.17;7.20;;;6.00;99.90;;;;;;4988830;28;20939;-78
2021/04/09 06:25:21;;;;;;;12.60;7.77;;;6.10;99.90;;;;;;4989521;28;20188;-78
2021/04/09 06:27:47;;;;;;;9.83;7.33;;;6.10;99.90;;;;;;4994086;28;20177;-77
2021/04/09 06:30:13;;;;;;;11.43;7.47;;;6.20;99.90;;;;;;4996970;28;20513;-77
2021/04/09 06:32:38;;;;;;;9.20;7.47;;;6.30;99.90;;;;;;5021272;28;20249;-77
2021/04/09 06:35:05;;;;;;;12.70;7.50;;;6.40;99.90;;;;;;4980547;28;20460;-77
2021/04/09 06:37:30;;;;;;;8.70;7.40;;;6.50;99.90;;;;;;4979581;28;20208;-77
2021/04/09 06:39:56;;;;;;;12.00;7.40;;;6.60;99.90;;;;;;4993094;28;20428;-77
2021/04/09 06:42:21;;;;;;;10.03;6.70;;;6.70;99.90;;;;;;4988056;28;20177;-78
2021/04/09 06:44:49;;;;;;;10.77;8.33;;;6.90;99.90;;;;;;4998059;28;20267;-78
2021/04/09 06:47:17;;;;;;;10.03;8.13;;;7.10;99.90;;;;;;5012891;28;20201;-77
2021/04/09 06:49:42;;;;;;;10.40;7.70;;;7.10;99.90;;;;;;4997145;28;20443;-77
2021/04/09 06:52:10;;;;;;;9.80;7.10;;;7.30;99.90;;;;;;4997025;28;20470;-78
2021/04/09 06:54:36;;;;;;;10.00;7.50;;;7.50;99.90;;;;;;4991334;28;20216;-78
2021/04/09 06:57:03;;;;;;;11.33;7.20;;;7.50;99.90;;;;;;4979325;28;20792;-78
2021/04/09 06:59:32;;;;;;;14.10;7.73;;;7.70;99.90;;;;;;4993009;28;20186;-77
2021/04/09 07:02:00;;;;;;;9.27;6.57;;;7.80;99.90;;;;;;4986273;28;20456;-77
2021/04/09 07:04:26;;;;;;;10.83;7.17;;;8.00;99.90;;;;;;4999235;28;20467;-79
2021/04/09 07:06:52;;;;;;;21.63;8.53;;;8.40;99.90;;;;;;5028472;28;20443;-79
2021/04/09 07:09:17;;;;;;;9.87;7.43;;;8.80;99.90;;;;;;5031714;28;20222;-78
2021/04/09 07:11:51;;;;;;;9.80;6.50;;;9.10;99.90;;;;;;4997267;28;20213;-77
2021/04/09 07:14:16;;;;;;;11.13;8.07;;;9.40;99.90;;;;;;5030744;28;20224;-79
2021/04/09 07:17:04;;;;;;;9.10;6.80;;;9.80;99.90;;;;;;5018261;28;20429;-79
2021/04/09 07:19:34;;;;;;;10.87;6.90;;;9.80;99.90;;;;;;4995744;28;20171;-78
2021/04/09 07:22:04;;;;;;;10.40;7.13;;;9.90;99.90;;;;;;4981296;28;20555;-77
2021/04/09 07:24:31;;;;;;;13.87;7.47;;;10.10;99.90;;;;;;4984417;28;20444;-78
2021/04/09 07:26:58;;;;;;;8.33;6.90;;;10.10;99.90;;;;;;4988118;28;20524;-79
2021/04/09 07:29:30;;;;;;;9.67;7.40;;;10.20;99.90;;;;;;4993257;28;20977;-77
2021/04/09 07:32:00;;;;;;;8.40;6.43;;;10.20;99.90;;;;;;4994390;28;20476;-78
2021/04/09 07:34:26;;;;;;;12.37;7.00;;;10.20;99.90;;;;;;5012314;28;20424;-78
2021/04/09 07:36:57;;;;;;;10.20;7.87;;;10.20;99.90;;;;;;4996478;28;20435;-77
2021/04/09 07:39:33;;;;;;;9.17;6.63;;;10.20;99.90;;;;;;4996025;28;20220;-78
2021/04/09 07:42:09;;;;;;;9.40;7.87;;;10.20;99.90;;;;;;4992714;28;20455;-78
2021/04/09 07:44:36;;;;;;;9.70;6.30;;;10.40;99.90;;;;;;4990158;28;20438;-77
2021/04/09 07:47:15;;;;;;;10.30;7.23;;;10.30;99.90;;;;;;5110242;27;20532;-77
2021/04/09 07:49:41;;;;;;;8.60;5.90;;;10.50;99.90;;;;;;5108490;28;20437;-77
2021/04/09 07:52:12;;;;;;;10.87;6.57;;;10.70;99.90;;;;;;5103578;28;20430;-79
2021/04/09 07:54:38;;;;;;;14.20;7.07;;;11.10;99.90;;;;;;5089843;28;21126;-78
2021/04/09 07:57:04;;;;;;;14.80;8.17;;;11.50;99.90;;;;;;5069408;28;20768;-78
2021/04/09 07:59:41;;;;;;;11.90;6.33;;;12.10;99.90;;;;;;5103815;28;20419;-77
2021/04/09 08:02:11;;;;;;;15.30;7.13;;;12.40;99.90;;;;;;5100243;28;20454;-78
2021/04/09 08:04:40;;;;;;;8.27;6.53;;;12.50;99.90;;;;;;5102397;28;20428;-75
2021/04/09 08:07:06;;;;;;;10.47;7.10;;;12.70;99.90;;;;;;5088624;28;20427;-77
2021/04/09 08:09:48;;;;;;;7.27;6.57;;;12.40;99.90;;;;;;5088012;28;20407;-76
2021/04/09 08:12:52;;;;;;;13.10;6.90;;;12.50;99.90;;;;;;5089241;28;20407;-76
2021/04/09 08:15:19;;;;;;;10.23;6.83;;;13.10;99.90;;;;;;5057811;28;20973;-76
2021/04/09 08:18:00;;;;;;;7.77;6.97;;;13.30;98.80;;;;;;5085001;28;20415;-76
2021/04/09 08:20:27;;;;;;;9.40;5.77;;;13.70;98.10;;;;;;5085021;28;20951;-79
2021/04/09 08:23:01;;;;;;;12.13;6.70;;;13.60;98.30;;;;;;5090124;28;20412;-79
2021/04/09 08:25:28;;;;;;;7.10;6.03;;;13.40;97.30;;;;;;5090957;28;20509;-79
2021/04/09 08:27:54;;;;;;;8.67;6.60;;;13.60;96.90;;;;;;5091023;28;20395;-77
2021/04/09 08:30:20;;;;;;;9.63;6.80;;;13.80;96.00;;;;;;5088232;28;20511;-76
2021/04/09 08:32:47;;;;;;;15.13;6.63;;;13.90;95.90;;;;;;5088657;28;20162;-77
2021/04/09 08:35:12;;;;;;;8.30;6.20;;;13.80;94.20;;;;;;5088639;28;20447;-76
2021/04/09 08:37:40;;;;;;;10.40;6.80;;;13.50;95.70;;;;;;5088621;28;20455;-75
2021/04/09 08:40:06;;;;;;;9.43;6.40;;;13.60;93.80;;;;;;5091126;28;20202;-79
2021/04/09 08:42:34;;;;;;;9.13;6.37;;;13.60;95.20;;;;;;5105915;28;20431;-79
2021/04/09 08:45:01;;;;;;;8.43;5.83;;;13.60;93.90;;;;;;5101807;28;20424;-77
2021/04/09 08:47:29;;;;;;;9.63;6.10;;;13.60;94.10;;;;;;5092465;28;20462;-80
2021/04/09 08:49:56;;;;;;;12.27;6.87;;;13.90;93.90;;;;;;5090157;28;20414;-79
2021/04/09 08:52:22;;;;;;;8.00;6.43;;;14.40;93.10;;;;;;5092297;28;20411;-79
2021/04/09 08:54:50;;;;;;;8.37;6.37;;;14.50;90.10;;;;;;5108449;28;20460;-79
2021/04/09 08:57:32;;;;;;;8.20;6.33;;;14.60;90.90;;;;;;5085890;28;20404;-78
2021/04/09 09:00:17;;;;;;;8.47;6.50;;;15.10;90.80;;;;;;5092824;28;20428;-79
2021/04/09 09:02:49;;;;;;;14.77;9.27;;;15.00;85.50;;;;;;5073245;28;20458;-79
2021/04/09 09:05:26;;;;;;;8.50;6.57;;;14.90;81.50;;;;;;5077193;28;20456;-79
2021/04/09 09:07:56;;;;;;;10.10;7.13;;;14.70;86.60;;;;;;5076543;28;20877;-79
2021/04/09 09:10:30;;;;;;;10.50;6.50;;;14.90;85.70;;;;;;5078448;28;20459;-80
2021/04/09 09:13:08;;;;;;;9.43;5.80;;;14.20;78.90;;;;;;5079030;28;20408;-80
2021/04/09 09:15:46;;;;;;;13.13;6.53;;;15.00;82.50;;;;;;5077813;28;20810;-78
2021/04/09 09:18:31;;;;;;;12.13;6.60;;;15.80;84.20;;;;;;5077715;28;20931;-79
2021/04/09 09:21:05;;;;;;;9.33;6.10;;;16.50;74.80;;;;;;5079103;28;20473;-78
2021/04/09 09:23:48;;;;;;;8.63;5.90;;;17.40;72.70;;;;;;5059810;28;20405;-79
2021/04/09 09:26:33;;;;;;;9.87;6.73;;;18.00;65.50;;;;;;5077745;28;21018;-78
2021/04/09 09:29:22;;;;;;;10.60;6.67;;;17.80;64.00;;;;;;5059156;28;20471;-79
2021/04/09 09:32:07;;;;;;;11.53;7.37;;;16.80;58.90;;;;;;5054497;28;20820;-77
2021/04/09 09:34:36;;;;;;;13.33;7.67;;;16.30;61.10;;;;;;5054113;28;20404;-77
2021/04/09 09:37:15;;;;;;;10.50;7.00;;;16.00;61.70;;;;;;5073080;28;20455;-77
2021/04/09 09:39:52;;;;;;;9.53;5.90;;;15.50;61.50;;;;;;5072989;28;20404;-77
2021/04/09 09:42:25;;;;;;;7.07;5.30;;;15.50;62.30;;;;;;5073748;28;20408;-77
2021/04/09 09:44:52;;;;;;;9.67;6.77;;;16.00;62.90;;;;;;5073525;28;20978;-78
2021/04/09 09:47:23;;;;;;;11.37;6.40;;;16.40;63.20;;;;;;5073425;28;20771;-78
2021/04/09 09:50:08;;;;;;;9.77;5.70;;;17.20;65.70;;;;;;5072234;28;20412;-80
2021/04/09 09:52:57;;;;;;;13.63;6.30;;;17.20;60.30;;;;;;5074012;28;20400;-80
2021/04/09 09:55:41;;;;;;;12.03;5.93;;;17.00;60.00;;;;;;5079213;28;20515;-80
2021/04/09 09:58:28;;;;;;;10.70;6.33;;;17.40;60.70;;;;;;5083179;28;20529;-77
2021/04/09 10:00:59;;;;;;;9.33;7.40;;;18.00;60.80;;;;;;5073237;28;20856;-78
2021/04/09 10:03:29;;;;;;;11.80;6.80;;;18.10;57.80;;;;;;5073191;28;20494;-78
2021/04/09 10:06:00;;;;;;;13.60;6.40;;;18.60;57.80;;;;;;5071907;28;20459;-79
2021/04/09 10:08:26;;;;;;;8.77;6.10;;;18.20;56.10;;;;;;5071927;28;20509;-78
2021/04/09 10:10:54;;;;;;;8.10;6.13;;;17.90;55.80;;;;;;5072893;28;20220;-77
2021/04/09 10:13:30;;;;;;;11.40;6.73;;;18.20;57.40;;;;;;5073301;28;20397;-78
2021/04/09 10:16:21;;;;;;;9.40;6.27;;;18.70;58.40;;;;;;5072863;28;20431;-78
2021/04/09 10:18:48;;;;;;;14.40;6.10;;;18.70;58.20;;;;;;5073288;28;20412;-78
2021/04/09 10:21:30;;;;;;;8.40;5.90;;;17.90;54.40;;;;;;5072876;28;20420;-78
2021/04/09 10:24:12;;;;;;;8.63;5.40;;;17.80;56.50;;;;;;5091180;28;20746;-79
2021/04/09 10:26:40;;;;;;;7.97;4.93;;;17.10;56.70;;;;;;5075568;28;20464;-79
2021/04/09 10:29:18;;;;;;;9.37;5.93;;;16.70;57.40;;;;;;5075245;28;20499;-79
2021/04/09 10:31:44;;;;;;;7.00;5.37;;;16.70;59.80;;;;;;5075175;28;20456;-79
2021/04/09 10:34:09;;;;;;;6.07;4.87;;;16.70;59.90;;;;;;5075322;28;20403;-78
2021/04/09 10:36:35;;;;;;;7.53;5.57;;;16.40;60.10;;;;;;5072826;28;20170;-78
2021/04/09 10:39:10;;;;;;;7.17;5.60;;;16.60;62.40;;;;;;5088441;28;20520;-78
2021/04/09 10:41:38;;;;;;;8.50;5.53;;;16.50;60.10;;;;;;5073444;28;20837;-79
2021/04/09 10:44:11;;;;;;;6.43;4.93;;;15.80;61.30;;;;;;5076624;28;20511;-79
2021/04/09 10:46:42;;;;;;;6.93;5.57;;;15.40;63.20;;;;;;5062226;28;20488;-78
2021/04/09 10:49:14;;;;;;;7.93;4.93;;;15.00;65.70;;;;;;5074191;28;20428;-78
2021/04/09 10:51:43;;;;;;;6.43;4.87;;;15.20;67.40;;;;;;5072592;28;20432;-80
2021/04/09 10:54:15;;;;;;;8.43;5.53;;;15.00;66.00;;;;;;5071373;28;20423;-78
2021/04/09 10:56:43;;;;;;;7.47;5.20;;;15.50;64.70;;;;;;5072365;28;20939;-78
2021/04/09 10:59:11;;;;;;;5.10;4.33;;;15.30;65.90;;;;;;5070900;28;20435;-79
2021/04/09 11:01:37;;;;;;;8.17;5.20;;;15.80;70.20;;;;;;5072960;28;20439;-80
2021/04/09 11:04:03;;;;;;;13.47;6.00;;;16.40;69.30;;;;;;5076062;28;20487;-80
2021/04/09 11:06:29;;;;;;;8.97;4.87;;;16.90;66.30;;;;;;5080942;28;20468;-78
2021/04/09 11:08:59;;;;;;;10.60;5.13;;;17.40;66.70;;;;;;5060048;28;20413;-80
2021/04/09 11:11:30;;;;;;;7.80;5.77;;;17.60;62.30;;;;;;5066149;28;20432;-79
2021/04/09 11:14:02;;;;;;;7.30;5.30;;;18.30;65.10;;;;;;5076134;28;20401;-80
2021/04/09 11:16:27;;;;;;;7.17;4.97;;;18.20;59.40;;;;;;5074788;28;20928;-79
2021/04/09 11:18:59;;;;;;;5.93;4.57;;;18.70;60.60;;;;;;5077407;28;20424;-78
2021/04/09 11:22:02;;;;;;;5.27;4.77;;;19.30;60.30;;;;;;5074233;28;20235;-79
2021/04/09 11:24:30;;;;;;;5.50;4.20;;;20.30;59.00;;;;;;4963114;28;20455;-78
2021/04/09 11:26:57;;;;;;;6.73;5.40;;;20.70;58.90;;;;;;5044115;28;20499;-78
2021/04/09 11:29:31;;;;;;;5.13;4.30;;;20.70;56.20;;;;;;5055855;28;20985;-76
2021/04/09 11:32:14;;;;;;;6.57;4.10;;;21.00;56.10;;;;;;5054777;28;21100;-79
2021/04/09 11:34:42;;;;;;;6.30;5.03;;;20.90;54.60;;;;;;5055798;28;20425;-76
2021/04/09 11:37:09;;;;;;;8.27;5.43;;;20.60;54.40;;;;;;5056555;28;20504;-78
2021/04/09 11:39:34;;;;;;;9.30;4.40;;;20.10;52.90;;;;;;5060522;28;20416;-78
2021/04/09 11:42:03;;;;;;;7.97;5.43;;;20.50;56.40;;;;;;5054185;28;20439;-79
2021/04/09 11:44:35;;;;;;;6.40;4.57;;;20.60;53.30;;;;;;5068368;28;20409;-79
2021/04/09 11:47:20;;;;;;;5.63;4.77;;;20.80;54.00;;;;;;5075497;28;21062;-80
2021/04/09 11:49:59;;;;;;;7.23;5.00;;;20.50;51.60;;;;;;5075241;28;20419;-79
2021/04/09 11:52:24;;;;;;;7.60;5.20;;;20.30;52.70;;;;;;5077107;28;20400;-80
2021/04/09 11:54:50;;;;;;;7.10;4.83;;;20.20;52.60;;;;;;5075028;28;20931;-78
2021/04/09 11:57:26;;;;;;;6.93;5.27;;;19.90;52.10;;;;;;5075183;28;20706;-80
2021/04/09 11:59:53;;;;;;;8.03;5.87;;;19.70;53.90;;;;;;5076585;28;20173;-79
2021/04/09 12:02:26;;;;;;;9.40;5.37;;;19.20;51.40;;;;;;5075727;28;20507;-80
2021/04/09 12:04:52;;;;;;;5.37;4.87;;;20.10;56.30;;;;;;5074995;28;20420;-79
2021/04/09 12:07:26;;;;;;;7.77;6.60;;;20.30;52.10;;;;;;5072727;28;20412;-77
2021/04/09 12:09:57;;;;;;;5.17;4.70;;;20.30;50.50;;;;;;5070953;28;20495;-78
2021/04/09 12:12:25;;;;;;;5.50;5.00;;;19.20;50.50;;;;;;5071631;28;20504;-78
2021/04/09 12:14:55;;;;;;;5.43;4.93;;;19.50;52.80;;;;;;5071606;28;20431;-78
2021/04/09 12:17:22;;;;;;;12.10;5.30;;;20.30;53.00;;;;;;5073272;28;20769;-80
2021/04/09 12:19:50;;;;;;;5.80;5.20;;;21.00;53.30;;;;;;5075479;28;20424;-80
2021/04/09 12:22:16;;;;;;;9.90;7.20;;;20.60;50.00;;;;;;5075565;28;20936;-80
2021/04/09 12:24:42;;;;;;;9.07;5.17;;;20.10;52.10;;;;;;5075556;28;20412;-80
2021/04/09 12:27:09;;;;;;;8.83;5.47;;;20.40;52.50;;;;;;5074850;28;20460;-79
2021/04/09 12:29:35;;;;;;;8.80;7.40;;;20.90;53.10;;;;;;5072809;28;20462;-79
2021/04/09 12:32:02;;;;;;;6.63;5.90;;;21.20;51.90;;;;;;5075370;28;20440;-79
2021/04/09 12:34:27;;;;;;;8.50;5.50;;;20.60;49.10;;;;;;5078956;28;20409;-79
2021/04/09 12:36:53;;;;;;;6.83;4.90;;;21.10;50.40;;;;;;5079211;28;20428;-80
2021/04/09 12:39:20;;;;;;;10.10;5.07;;;20.40;48.70;;;;;;5094882;28;20205;-78
2021/04/09 12:41:46;;;;;;;6.77;5.20;;;20.40;49.30;;;;;;5095141;28;20656;-80
2021/04/09 12:44:16;;;;;;;12.10;5.40;;;20.10;49.90;;;;;;5095152;28;20416;-79
2021/04/09 12:46:44;;;;;;;6.13;5.00;;;19.20;49.70;;;;;;5075367;28;20202;-78
2021/04/09 12:49:10;;;;;;;6.10;5.40;;;19.20;50.80;;;;;;5075094;28;20408;-78
2021/04/09 12:51:36;;;;;;;8.60;5.47;;;19.10;51.60;;;;;;5073781;28;21062;-79
2021/04/09 12:54:02;;;;;;;6.40;5.73;;;19.30;50.80;;;;;;5077546;28;20435;-78
2021/04/09 12:56:28;;;;;;;6.90;5.30;;;19.70;51.00;;;;;;5084211;28;20417;-80
2021/04/09 12:58:54;;;;;;;7.77;5.80;;;20.40;52.50;;;;;;5058500;28;20408;-78